Brisas de Ceiba, Puerto Rico
Current Conditions -  °F | °C
As of 11:53 PM on Friday 19 Dec 2014 (Local Time) from TJNR Reporting Station
Scattered Clouds Scattered Clouds  
Wind Chill: 77°   Ceiling: Unl
Heat Index: 79°   Visibility: 10mi
Dew Point: 68°   Wind: 3mph
Humidity: 74%   Direction: 80°E
Pressure: 30.03"   Gusts: NA
Location:  18.2667°N, 65.6476°W
Report Text: TJNR 200353Z AUTO 08003KT 10SM FEW029 SCT044 25/20 A3003 RMK AO2 SLP169 T02500200 402890250
Loading
Personal Weather Stations






























Interactive Weather Map New forecast layout! Learn more

10-Day Weather Forecast

Advertisements
Track Severe Weather on mobile